Time;durP1;ratioP1;P1;durP2;ratioP2;P2;SDS_P1;SDS_P2;PMS_P1;PMS_P2;Temp;Humidity;BMP_temperature;BMP_pressure;BME280_temperature;BME280_humidity;BME280_pressure;Samples;Min_cycle;Max_cycle;Signal;HPM_P1;HPM_P2
2024/01/11 00:01:10;;;;;;;169.63;57.00;;;;;;;;;;10310413;23;20024;-85
2024/01/11 00:05:16;;;;;;;164.67;54.30;;;;;;;;;;10310700;23;20565;-85
2024/01/11 00:47:48;;;;;;;114.03;43.63;;;;;;;;;;10276963;23;20024;-86
2024/01/11 00:51:52;;;;;;;147.15;48.42;;;;;;;;;;10336764;23;20054;-85
2024/01/11 00:55:54;;;;;;;110.25;42.90;;;;;;;;;;10310286;23;20559;-86
2024/01/11 00:59:57;;;;;;;127.75;45.42;;;;;;;;;;10309796;23;20356;-85
2024/01/11 02:01:14;;;;;;;90.65;31.08;;;;;;;;;;10329172;23;20111;-83
2024/01/11 02:05:20;;;;;;;105.43;38.15;;;;;;;;;;10356078;23;20020;-87
2024/01/11 02:09:24;;;;;;;99.10;36.40;;;;;;;;;;10261070;23;20715;-83
2024/01/11 02:13:28;;;;;;;96.35;38.45;;;;;;;;;;10338818;23;20091;-86
2024/01/11 02:17:34;;;;;;;100.43;33.67;;;;;;;;;;10311994;23;20077;-85
2024/01/11 02:21:37;;;;;;;105.10;34.75;;;;;;;;;;10356278;23;20020;-86
2024/01/11 02:25:42;;;;;;;112.93;38.75;;;;;;;;;;10312430;23;20039;-87
2024/01/11 02:55:29;;;;;;;95.88;34.75;;;;;;;;;;10184665;23;20156;-85
2024/01/11 02:59:33;;;;;;;81.72;29.63;;;;;;;;;;10301798;23;20099;-85
2024/01/11 03:03:36;;;;;;;60.83;25.95;;;;;;;;;;10338202;23;20436;-82
2024/01/11 03:07:39;;;;;;;75.85;29.35;;;;;;;;;;10338359;23;20095;-86
2024/01/11 03:11:44;;;;;;;65.00;29.40;;;;;;;;;;10311618;23;20023;-87
2024/01/11 03:15:47;;;;;;;55.92;27.48;;;;;;;;;;10337701;23;20432;-86
2024/01/11 03:19:51;;;;;;;46.00;20.67;;;;;;;;;;10311337;23;20059;-84
2024/01/11 03:23:54;;;;;;;45.33;22.95;;;;;;;;;;10311325;23;20016;-86
2024/01/11 03:28:01;;;;;;;67.75;30.20;;;;;;;;;;10337617;23;20500;-86
2024/01/11 03:32:05;;;;;;;69.35;26.83;;;;;;;;;;10310665;23;20051;-84
2024/01/11 03:36:09;;;;;;;45.92;23.52;;;;;;;;;;10311662;23;20047;-83
2024/01/11 03:40:14;;;;;;;42.72;15.57;;;;;;;;;;10337734;23;20485;-85
2024/01/11 03:44:21;;;;;;;15.23;9.07;;;;;;;;;;10310881;23;20020;-86
2024/01/11 03:48:24;;;;;;;51.38;20.63;;;;;;;;;;10311117;23;20506;-85
2024/01/11 03:52:27;;;;;;;60.85;27.17;;;;;;;;;;10310869;23;20023;-85
2024/01/11 03:56:33;;;;;;;22.83;13.00;;;;;;;;;;10337422;23;20016;-85
2024/01/11 04:00:40;;;;;;;107.50;33.35;;;;;;;;;;10310932;23;20040;-85
2024/01/11 04:04:57;;;;;;;77.95;32.33;;;;;;;;;;10354232;23;20016;-87
2024/01/11 04:09:06;;;;;;;50.70;22.50;;;;;;;;;;10310552;23;20020;-86
2024/01/11 04:13:09;;;;;;;80.07;29.77;;;;;;;;;;10310602;23;20024;-85
2024/01/11 04:17:14;;;;;;;73.70;28.40;;;;;;;;;;10310752;23;20027;-85
2024/01/11 04:21:24;;;;;;;70.25;27.50;;;;;;;;;;10337144;23;20020;-82
2024/01/11 04:25:28;;;;;;;73.57;30.02;;;;;;;;;;10310369;23;20027;-83
2024/01/11 04:29:31;;;;;;;74.65;31.23;;;;;;;;;;10310489;23;20020;-87
2024/01/11 04:33:41;;;;;;;74.28;29.95;;;;;;;;;;10310003;23;20099;-84
2024/01/11 04:37:44;;;;;;;66.78;24.13;;;;;;;;;;10310705;23;20020;-85
2024/01/11 04:41:47;;;;;;;97.35;37.30;;;;;;;;;;10314243;23;20027;-86
2024/01/11 04:45:50;;;;;;;98.70;36.55;;;;;;;;;;10342194;23;20023;-87
2024/01/11 04:49:55;;;;;;;66.88;26.70;;;;;;;;;;10316128;23;20027;-87
2024/01/11 04:53:58;;;;;;;104.15;38.72;;;;;;;;;;10342684;23;20020;-86
2024/01/11 04:58:02;;;;;;;68.13;24.80;;;;;;;;;;10316862;23;20016;-87
2024/01/11 05:02:05;;;;;;;89.72;35.00;;;;;;;;;;10315827;23;20027;-87
2024/01/11 05:06:17;;;;;;;91.78;29.35;;;;;;;;;;10315709;23;20039;-87
2024/01/11 06:03:39;;;;;;;65.10;27.63;;;;;;;;;;10292143;22;20558;-87
2024/01/11 06:07:47;;;;;;;92.50;28.92;;;;;;;;;;10355962;23;20020;-87
2024/01/11 06:11:50;;;;;;;71.40;28.38;;;;;;;;;;10355688;23;20024;-85
2024/01/11 06:15:53;;;;;;;105.28;35.95;;;;;;;;;;10312716;23;20024;-87
2024/01/11 06:24:41;;;;;;;65.93;24.77;;;;;;;;;;10136265;23;20045;-87
2024/01/11 06:28:44;;;;;;;54.17;24.45;;;;;;;;;;10143194;23;20436;-87
2024/01/11 06:32:48;;;;;;;77.55;27.15;;;;;;;;;;10111562;23;20506;-86
2024/01/11 06:36:51;;;;;;;74.68;29.80;;;;;;;;;;10136122;23;20097;-86
2024/01/11 06:40:56;;;;;;;94.25;30.17;;;;;;;;;;10212514;23;20436;-89
2024/01/11 06:44:59;;;;;;;83.25;26.83;;;;;;;;;;10312359;23;20441;-86
2024/01/11 06:49:03;;;;;;;55.20;22.40;;;;;;;;;;10312173;23;20464;-86
2024/01/11 06:53:06;;;;;;;85.60;35.88;;;;;;;;;;10311856;23;20039;-85
2024/01/11 06:57:13;;;;;;;82.70;29.23;;;;;;;;;;10311804;23;20448;-87
2024/01/11 07:01:17;;;;;;;78.45;28.50;;;;;;;;;;10311494;23;20345;-88
2024/01/11 07:05:20;;;;;;;86.13;32.60;;;;;;;;;;10355026;23;20073;-87
2024/01/11 07:09:23;;;;;;;93.32;30.15;;;;;;;;;;10311787;23;20024;-87
2024/01/11 07:13:27;;;;;;;100.63;37.83;;;;;;;;;;10337884;23;20020;-87
2024/01/11 07:17:30;;;;;;;85.20;33.67;;;;;;;;;;10337922;23;20090;-85
2024/01/11 07:21:34;;;;;;;85.10;34.47;;;;;;;;;;10311957;23;20031;-83
2024/01/11 07:25:37;;;;;;;67.13;24.45;;;;;;;;;;10338143;23;20062;-84
2024/01/11 07:29:42;;;;;;;75.57;29.30;;;;;;;;;;10337680;23;20595;-88
2024/01/11 07:33:45;;;;;;;73.85;27.10;;;;;;;;;;10311034;23;20024;-86
2024/01/11 07:37:49;;;;;;;99.47;35.95;;;;;;;;;;10311378;23;20027;-86
2024/01/11 07:41:54;;;;;;;83.63;30.10;;;;;;;;;;10311279;23;20024;-88
2024/01/11 07:46:01;;;;;;;84.82;29.13;;;;;;;;;;10310922;23;20048;-87
2024/01/11 07:50:06;;;;;;;87.38;32.40;;;;;;;;;;10354238;23;20024;-85
2024/01/11 07:54:10;;;;;;;103.07;37.70;;;;;;;;;;10310884;23;20544;-88
2024/01/11 07:58:15;;;;;;;43.33;15.48;;;;;;;;;;10311056;23;20031;-88
2024/01/11 08:02:23;;;;;;;96.35;35.35;;;;;;;;;;10310463;23;20349;-87
2024/01/11 08:06:26;;;;;;;31.20;11.35;;;;;;;;;;10310985;23;20031;-87
2024/01/11 08:10:30;;;;;;;66.65;26.77;;;;;;;;;;10317890;23;20024;-89
2024/01/11 08:14:33;;;;;;;57.88;22.65;;;;;;;;;;10335108;23;20016;-85
2024/01/11 08:18:38;;;;;;;99.25;33.88;;;;;;;;;;10310666;23;20352;-86
2024/01/11 08:22:43;;;;;;;94.25;35.58;;;;;;;;;;10310654;23;20024;-87
2024/01/11 08:26:46;;;;;;;67.80;27.58;;;;;;;;;;10337015;23;20353;-87
2024/01/11 08:30:49;;;;;;;91.05;30.83;;;;;;;;;;10310546;23;20020;-86
2024/01/11 08:34:54;;;;;;;85.93;32.05;;;;;;;;;;10336968;23;20020;-87
2024/01/11 08:38:57;;;;;;;91.63;35.17;;;;;;;;;;10336765;23;20043;-87
2024/01/11 08:43:01;;;;;;;51.75;19.17;;;;;;;;;;10310729;23;20441;-87
2024/01/11 08:47:04;;;;;;;93.38;32.95;;;;;;;;;;10310741;23;20340;-87
2024/01/11 08:51:11;;;;;;;82.72;32.35;;;;;;;;;;10310304;23;20365;-88
2024/01/11 08:55:16;;;;;;;81.25;30.60;;;;;;;;;;10310561;23;20028;-87
2024/01/11 08:59:20;;;;;;;109.43;37.90;;;;;;;;;;10310474;23;20024;-87
2024/01/11 09:17:47;;;;;;;77.22;28.70;;;;;;;;;;10379146;22;20325;-86
2024/01/11 09:21:50;;;;;;;102.65;35.15;;;;;;;;;;10387871;22;20094;-86
2024/01/11 09:25:53;;;;;;;90.40;34.00;;;;;;;;;;10387459;22;20016;-86
2024/01/11 09:29:56;;;;;;;92.88;34.65;;;;;;;;;;10389079;22;20115;-87
2024/01/11 09:34:01;;;;;;;87.35;30.20;;;;;;;;;;10390490;22;20026;-84
2024/01/11 09:38:04;;;;;;;105.85;39.63;;;;;;;;;;10383705;22;20013;-83
2024/01/11 09:42:10;;;;;;;87.40;31.73;;;;;;;;;;10407233;22;20023;-87
2024/01/11 09:46:13;;;;;;;86.95;30.85;;;;;;;;;;10407883;22;20101;-87
2024/01/11 09:50:19;;;;;;;74.85;28.33;;;;;;;;;;10386073;22;20440;-88
2024/01/11 09:58:59;;;;;;;63.03;21.95;;;;;;;;;;10292987;22;20038;-84
2024/01/11 10:03:03;;;;;;;92.15;32.63;;;;;;;;;;10390162;22;20023;-89
2024/01/11 10:07:09;;;;;;;92.85;34.00;;;;;;;;;;10363544;22;20479;-87
2024/01/11 10:15:25;;;;;;;83.85;34.30;;;;;;;;;;10360700;22;20051;-87
2024/01/11 10:24:23;;;;;;;114.13;38.92;;;;;;;;;;10344876;22;20376;-87
2024/01/11 10:28:28;;;;;;;44.97;18.40;;;;;;;;;;10305523;23;20040;-88
2024/01/11 10:32:34;;;;;;;97.28;34.08;;;;;;;;;;10305376;23;20044;-88
2024/01/11 10:36:58;;;;;;;87.95;32.25;;;;;;;;;;10266238;23;20024;-84
2024/01/11 10:51:09;;;;;;;61.97;27.05;;;;;;;;;;10329634;22;20344;-84
2024/01/11 11:00:36;;;;;;;98.60;33.83;;;;;;;;;;10292797;22;20062;-88
2024/01/11 11:04:40;;;;;;;99.90;36.72;;;;;;;;;;10388935;22;20034;-83
2024/01/11 11:08:47;;;;;;;71.50;26.67;;;;;;;;;;10389659;22;20023;-84
2024/01/11 11:12:50;;;;;;;65.43;24.40;;;;;;;;;;10405601;22;20462;-88
2024/01/11 11:16:54;;;;;;;95.70;34.35;;;;;;;;;;10388736;22;20448;-88
2024/01/11 11:20:58;;;;;;;81.90;34.22;;;;;;;;;;10356226;22;20123;-84
2024/01/11 11:25:11;;;;;;;89.47;32.33;;;;;;;;;;10388744;22;20038;-86
2024/01/11 11:29:16;;;;;;;72.82;28.65;;;;;;;;;;10362003;22;20031;-88
2024/01/11 11:33:21;;;;;;;74.85;31.58;;;;;;;;;;10361574;22;20029;-87
2024/01/11 11:37:25;;;;;;;78.57;29.77;;;;;;;;;;10361323;22;20016;-88
2024/01/11 11:45:42;;;;;;;53.80;17.60;;;;;;;;;;10386079;22;20492;-89
2024/01/11 11:50:06;;;;;;;81.15;30.90;;;;;;;;;;10405063;22;20094;-87
2024/01/11 11:54:10;;;;;;;79.47;28.17;;;;;;;;;;10372752;22;20023;-87
2024/01/11 11:58:15;;;;;;;79.82;30.60;;;;;;;;;;10387979;22;20020;-87
2024/01/11 12:02:22;;;;;;;51.47;20.95;;;;;;;;;;10388139;22;20016;-88
2024/01/11 12:06:27;;;;;;;79.03;32.80;;;;;;;;;;10405089;22;20065;-88
2024/01/11 12:10:30;;;;;;;81.10;31.85;;;;;;;;;;10361580;22;20041;-89
2024/01/11 12:14:33;;;;;;;63.50;25.73;;;;;;;;;;10389187;22;20089;-88
2024/01/11 12:18:37;;;;;;;80.90;33.17;;;;;;;;;;10388444;22;20057;-86
2024/01/11 12:22:40;;;;;;;82.60;27.92;;;;;;;;;;10388530;22;20015;-87
2024/01/11 12:26:43;;;;;;;79.45;29.52;;;;;;;;;;10387863;22;20031;-88
2024/01/11 12:30:49;;;;;;;87.07;28.60;;;;;;;;;;10388392;22;20015;-87
2024/01/11 12:34:54;;;;;;;72.65;28.88;;;;;;;;;;10405254;22;20019;-89
2024/01/11 12:38:58;;;;;;;82.38;32.53;;;;;;;;;;10361251;22;20049;-90
2024/01/11 12:43:02;;;;;;;79.00;28.13;;;;;;;;;;10387784;22;20089;-89
2024/01/11 12:47:09;;;;;;;40.65;16.95;;;;;;;;;;10387705;22;20027;-86
2024/01/11 12:51:18;;;;;;;63.55;27.75;;;;;;;;;;10404821;22;20499;-89
2024/01/11 12:55:21;;;;;;;74.15;28.60;;;;;;;;;;10383114;22;20027;-88
2024/01/11 12:59:27;;;;;;;64.05;25.25;;;;;;;;;;10318661;22;20020;-89
2024/01/11 13:03:30;;;;;;;83.32;31.38;;;;;;;;;;10391003;22;20040;-87
2024/01/11 13:07:35;;;;;;;69.65;26.40;;;;;;;;;;10390801;22;20027;-88
2024/01/11 13:11:40;;;;;;;64.40;23.92;;;;;;;;;;10390940;22;20015;-86
2024/01/11 13:15:43;;;;;;;80.30;31.38;;;;;;;;;;10390585;22;20015;-88
2024/01/11 13:19:46;;;;;;;81.60;29.20;;;;;;;;;;10391014;22;20087;-88
2024/01/11 13:23:51;;;;;;;65.43;24.95;;;;;;;;;;10390849;22;20085;-86
2024/01/11 13:27:54;;;;;;;76.28;27.60;;;;;;;;;;10363654;22;20019;-84
2024/01/11 13:31:58;;;;;;;76.45;29.27;;;;;;;;;;10363829;22;20027;-84
2024/01/11 13:36:01;;;;;;;63.85;26.42;;;;;;;;;;10364271;22;20352;-89
2024/01/11 13:40:11;;;;;;;56.58;22.58;;;;;;;;;;10364130;22;20050;-88
2024/01/11 13:44:14;;;;;;;65.68;24.83;;;;;;;;;;10363746;22;20032;-88
2024/01/11 13:48:18;;;;;;;63.83;25.50;;;;;;;;;;10363890;22;20562;-88
2024/01/11 13:52:21;;;;;;;47.75;19.55;;;;;;;;;;10363555;22;20448;-89
2024/01/11 13:56:25;;;;;;;55.08;18.13;;;;;;;;;;10390320;22;20452;-89
2024/01/11 14:00:29;;;;;;;37.88;14.23;;;;;;;;;;10398401;22;20150;-88
2024/01/11 14:04:32;;;;;;;22.70;10.55;;;;;;;;;;10390043;22;20020;-87
2024/01/11 14:08:35;;;;;;;49.28;18.80;;;;;;;;;;10363348;22;20340;-87
2024/01/11 14:12:40;;;;;;;58.75;23.25;;;;;;;;;;10389627;22;20094;-82
2024/01/11 14:16:43;;;;;;;67.28;22.48;;;;;;;;;;10389684;22;20023;-89
2024/01/11 14:20:46;;;;;;;55.65;19.52;;;;;;;;;;10389883;22;20043;-89
2024/01/11 14:24:49;;;;;;;51.45;21.52;;;;;;;;;;10389831;22;20046;-85
2024/01/11 14:28:54;;;;;;;61.20;21.50;;;;;;;;;;10389692;22;20023;-87
2024/01/11 14:32:57;;;;;;;33.92;15.93;;;;;;;;;;10389681;22;20058;-89
2024/01/11 14:37:00;;;;;;;48.17;17.88;;;;;;;;;;10390697;22;20015;-89
2024/01/11 14:41:04;;;;;;;49.35;17.20;;;;;;;;;;10389751;22;20471;-86
2024/01/11 14:45:10;;;;;;;61.25;20.50;;;;;;;;;;10389586;22;20480;-87
2024/01/11 14:49:14;;;;;;;44.95;17.88;;;;;;;;;;10389636;22;20043;-90
2024/01/11 14:53:17;;;;;;;48.60;18.80;;;;;;;;;;10389383;22;20480;-87
2024/01/11 14:57:21;;;;;;;44.53;18.63;;;;;;;;;;10362688;22;20395;-89
2024/01/11 15:01:27;;;;;;;49.45;20.48;;;;;;;;;;10389711;22;20352;-88
2024/01/11 15:05:31;;;;;;;43.38;17.50;;;;;;;;;;10363031;22;20016;-89
2024/01/11 15:09:35;;;;;;;52.75;19.77;;;;;;;;;;10389706;22;20031;-88
2024/01/11 15:13:39;;;;;;;44.90;17.17;;;;;;;;;;10362159;22;20440;-89
2024/01/11 15:17:46;;;;;;;42.90;15.68;;;;;;;;;;10388894;22;20094;-89
2024/01/11 15:21:51;;;;;;;42.00;18.35;;;;;;;;;;10405781;22;20459;-88
2024/01/11 15:25:55;;;;;;;51.83;17.33;;;;;;;;;;10388382;22;20538;-88
2024/01/11 15:30:01;;;;;;;35.03;15.48;;;;;;;;;;10362624;22;20039;-87
2024/01/11 15:34:07;;;;;;;32.40;13.65;;;;;;;;;;10362264;22;20423;-87
2024/01/11 15:38:11;;;;;;;39.63;14.35;;;;;;;;;;10362216;22;20452;-89
2024/01/11 15:42:14;;;;;;;47.65;17.13;;;;;;;;;;10388300;22;20026;-89
2024/01/11 15:46:17;;;;;;;38.90;15.02;;;;;;;;;;10360922;22;20452;-88
2024/01/11 15:50:37;;;;;;;41.53;17.55;;;;;;;;;;10361739;22;20031;-88
2024/01/11 15:54:40;;;;;;;47.90;20.38;;;;;;;;;;10400680;22;20023;-87
2024/01/11 15:58:44;;;;;;;35.70;14.10;;;;;;;;;;10361442;22;20352;-89
2024/01/11 16:02:53;;;;;;;33.38;15.32;;;;;;;;;;10405649;22;20015;-86
2024/01/11 16:06:58;;;;;;;50.58;17.85;;;;;;;;;;10362519;22;20386;-88
2024/01/11 16:11:05;;;;;;;44.67;17.08;;;;;;;;;;10388184;22;20467;-87
2024/01/11 16:15:09;;;;;;;55.47;20.27;;;;;;;;;;10405048;22;20015;-84
2024/01/11 16:19:13;;;;;;;64.35;21.77;;;;;;;;;;10388487;22;20019;-89
2024/01/11 16:23:17;;;;;;;62.10;22.00;;;;;;;;;;10389762;22;20020;-85
2024/01/11 16:27:20;;;;;;;59.50;21.13;;;;;;;;;;10389851;22;20043;-84
2024/01/11 16:31:24;;;;;;;56.55;21.33;;;;;;;;;;10362585;22;20042;-87
2024/01/11 16:35:27;;;;;;;51.38;20.52;;;;;;;;;;10388743;22;20313;-83
2024/01/11 16:39:32;;;;;;;49.42;16.77;;;;;;;;;;10362989;22;20077;-86
2024/01/11 16:43:36;;;;;;;53.28;18.67;;;;;;;;;;10387753;22;20452;-84
2024/01/11 16:47:39;;;;;;;46.97;19.60;;;;;;;;;;10388295;22;20024;-84
2024/01/11 16:51:46;;;;;;;51.45;19.90;;;;;;;;;;10360778;22;20024;-89
2024/01/11 16:55:51;;;;;;;51.47;19.30;;;;;;;;;;10387973;22;20023;-82
2024/01/11 16:59:54;;;;;;;35.20;14.43;;;;;;;;;;10387619;22;20020;-86
2024/01/11 17:03:57;;;;;;;43.47;18.20;;;;;;;;;;10387666;22;20100;-84
2024/01/11 17:08:00;;;;;;;47.70;20.20;;;;;;;;;;10353350;22;20343;-86
2024/01/11 17:12:05;;;;;;;50.45;17.75;;;;;;;;;;10387681;22;20385;-83
2024/01/11 17:16:09;;;;;;;64.30;23.33;;;;;;;;;;10359678;22;20089;-83
2024/01/11 17:20:13;;;;;;;55.65;21.77;;;;;;;;;;10387500;22;20020;-85
2024/01/11 17:24:16;;;;;;;66.03;24.98;;;;;;;;;;10360166;22;20431;-83
2024/01/11 17:28:21;;;;;;;56.00;23.70;;;;;;;;;;10387565;22;20035;-84
2024/01/11 17:32:24;;;;;;;60.72;23.20;;;;;;;;;;10360691;22;20054;-84
2024/01/11 17:36:27;;;;;;;59.05;22.73;;;;;;;;;;10362515;22;20094;-84
2024/01/11 17:40:31;;;;;;;58.30;23.13;;;;;;;;;;10387810;22;20020;-86
2024/01/11 17:44:39;;;;;;;60.88;22.05;;;;;;;;;;10360514;22;20031;-85
2024/01/11 17:48:42;;;;;;;56.83;19.35;;;;;;;;;;10361987;22;20444;-88
2024/01/11 17:52:45;;;;;;;54.88;22.77;;;;;;;;;;10363430;22;20475;-83
2024/01/11 17:56:51;;;;;;;52.28;21.27;;;;;;;;;;10363576;22;20019;-89
2024/01/11 18:00:58;;;;;;;44.92;18.52;;;;;;;;;;10390365;22;20440;-87
2024/01/11 18:05:01;;;;;;;45.97;16.38;;;;;;;;;;10392548;22;20400;-87
2024/01/11 18:09:04;;;;;;;53.88;21.00;;;;;;;;;;10393831;22;20024;-83
2024/01/11 18:13:07;;;;;;;49.85;21.17;;;;;;;;;;10391708;22;20348;-83
2024/01/11 18:17:12;;;;;;;43.40;17.38;;;;;;;;;;10390494;22;20336;-85
2024/01/11 18:21:19;;;;;;;49.53;18.80;;;;;;;;;;10390340;22;20063;-83
2024/01/11 18:25:23;;;;;;;49.40;19.40;;;;;;;;;;10389821;22;20591;-91
2024/01/11 18:29:26;;;;;;;48.53;19.20;;;;;;;;;;10362990;22;20066;-89
2024/01/11 18:33:31;;;;;;;50.60;20.10;;;;;;;;;;10363165;22;20043;-86
2024/01/11 18:37:37;;;;;;;52.47;20.70;;;;;;;;;;10390701;22;20023;-88
2024/01/11 18:41:45;;;;;;;55.08;19.48;;;;;;;;;;10410241;22;20016;-89
2024/01/11 18:45:51;;;;;;;43.20;17.42;;;;;;;;;;10368134;22;20340;-89
2024/01/11 18:49:59;;;;;;;61.45;19.88;;;;;;;;;;10365947;22;20028;-89
2024/01/11 18:54:03;;;;;;;45.40;16.55;;;;;;;;;;10394166;22;20026;-87
2024/01/11 18:58:09;;;;;;;34.60;13.50;;;;;;;;;;10362710;22;20050;-90
2024/01/11 19:02:13;;;;;;;46.47;19.40;;;;;;;;;;10362696;22;20024;-86
2024/01/11 19:06:18;;;;;;;45.50;17.13;;;;;;;;;;10362797;22;20047;-85
2024/01/11 19:10:21;;;;;;;37.90;15.80;;;;;;;;;;10390126;22;20376;-83
2024/01/11 19:14:24;;;;;;;44.30;17.13;;;;;;;;;;10389369;22;20024;-89
2024/01/11 19:18:27;;;;;;;43.33;18.33;;;;;;;;;;10391011;22;20023;-86
2024/01/11 19:22:38;;;;;;;50.28;20.23;;;;;;;;;;10389699;22;20015;-83
2024/01/11 19:26:42;;;;;;;41.83;17.23;;;;;;;;;;10406309;22;20023;-83
2024/01/11 19:30:45;;;;;;;35.08;16.17;;;;;;;;;;10361704;22;20426;-86
2024/01/11 19:34:48;;;;;;;45.92;17.58;;;;;;;;;;10388897;22;20026;-84
2024/01/11 19:38:52;;;;;;;39.10;17.42;;;;;;;;;;10336631;22;20064;-83
2024/01/11 19:42:55;;;;;;;40.47;17.75;;;;;;;;;;10389062;22;20355;-87
2024/01/11 19:47:00;;;;;;;42.88;18.08;;;;;;;;;;10388882;22;20019;-89
2024/01/11 19:51:03;;;;;;;42.35;16.00;;;;;;;;;;10388159;22;20022;-88
2024/01/11 19:55:08;;;;;;;42.67;17.05;;;;;;;;;;10388243;22;20019;-85
2024/01/11 19:59:12;;;;;;;44.08;17.83;;;;;;;;;;10388383;22;20468;-84
2024/01/11 20:03:16;;;;;;;34.83;14.45;;;;;;;;;;10388418;22;20019;-90
2024/01/11 20:07:19;;;;;;;20.45;10.50;;;;;;;;;;10388074;22;20016;-84
2024/01/11 20:11:23;;;;;;;48.08;16.95;;;;;;;;;;10387991;22;20024;-88
2024/01/11 20:15:26;;;;;;;61.05;20.33;;;;;;;;;;10388158;22;20015;-88
2024/01/11 20:19:30;;;;;;;32.22;13.07;;;;;;;;;;10388191;22;20019;-83
2024/01/11 20:23:34;;;;;;;41.88;17.48;;;;;;;;;;10361493;22;20027;-86
2024/01/11 20:27:41;;;;;;;42.78;17.25;;;;;;;;;;10363980;22;20020;-84
2024/01/11 20:31:45;;;;;;;42.20;16.58;;;;;;;;;;10406721;22;20058;-86
2024/01/11 20:35:48;;;;;;;95.43;33.50;;;;;;;;;;10361740;22;20019;-88
2024/01/11 20:39:54;;;;;;;36.92;15.50;;;;;;;;;;10361559;22;20023;-88
2024/01/11 20:44:00;;;;;;;64.90;29.17;;;;;;;;;;10361434;22;20040;-89
2024/01/11 20:48:05;;;;;;;43.15;17.40;;;;;;;;;;10361413;22;20103;-89
2024/01/11 20:52:08;;;;;;;36.53;16.00;;;;;;;;;;10361312;22;20019;-83
2024/01/11 20:56:11;;;;;;;32.10;13.93;;;;;;;;;;10387493;22;20044;-85
2024/01/11 21:00:18;;;;;;;40.15;17.02;;;;;;;;;;10388238;22;20427;-84
2024/01/11 21:04:22;;;;;;;48.42;18.10;;;;;;;;;;10404929;22;20062;-89
2024/01/11 21:08:25;;;;;;;50.03;18.60;;;;;;;;;;10361026;22;20073;-90
2024/01/11 21:12:28;;;;;;;56.90;24.33;;;;;;;;;;10388016;22;20094;-88
2024/01/11 21:16:32;;;;;;;26.17;10.00;;;;;;;;;;10361186;22;20039;-82
2024/01/11 21:20:35;;;;;;;37.75;16.65;;;;;;;;;;10388067;22;20356;-89
2024/01/11 21:24:38;;;;;;;38.17;14.23;;;;;;;;;;10391240;22;20577;-87
2024/01/11 21:28:41;;;;;;;39.25;15.63;;;;;;;;;;10364285;22;20024;-84
2024/01/11 21:32:45;;;;;;;31.15;14.90;;;;;;;;;;10391427;22;20094;-84
2024/01/11 21:36:48;;;;;;;38.40;15.63;;;;;;;;;;10390409;22;20059;-83
2024/01/11 21:40:52;;;;;;;43.08;17.13;;;;;;;;;;10390491;22;20023;-84
2024/01/11 21:44:55;;;;;;;38.95;16.65;;;;;;;;;;10390571;22;20023;-83
2024/01/11 21:49:00;;;;;;;37.22;16.42;;;;;;;;;;10390481;22;20015;-85
2024/01/11 21:53:05;;;;;;;37.90;14.55;;;;;;;;;;10389116;22;20123;-83
2024/01/11 21:57:08;;;;;;;40.58;15.77;;;;;;;;;;10388502;22;20024;-84
2024/01/11 22:01:12;;;;;;;34.90;14.77;;;;;;;;;;10389302;22;20479;-88
2024/01/11 22:05:17;;;;;;;31.92;14.25;;;;;;;;;;10389347;22;20020;-82
2024/01/11 22:09:20;;;;;;;31.60;13.35;;;;;;;;;;10388359;22;20355;-87
2024/01/11 22:13:26;;;;;;;43.38;16.85;;;;;;;;;;10389788;22;20094;-86
2024/01/11 22:17:30;;;;;;;38.45;15.70;;;;;;;;;;10389975;22;20023;-88
2024/01/11 22:21:39;;;;;;;38.22;16.20;;;;;;;;;;10390479;22;20095;-84
2024/01/11 22:25:44;;;;;;;37.95;16.02;;;;;;;;;;10390727;22;20019;-90
2024/01/11 22:29:47;;;;;;;42.22;16.85;;;;;;;;;;10390607;22;20012;-84
2024/01/11 22:33:50;;;;;;;39.30;16.42;;;;;;;;;;10388762;22;20058;-84
2024/01/11 22:37:55;;;;;;;37.15;14.85;;;;;;;;;;10389866;22;20093;-90
2024/01/11 22:41:58;;;;;;;38.95;17.10;;;;;;;;;;10388696;22;20059;-84
2024/01/11 22:46:02;;;;;;;33.10;13.60;;;;;;;;;;10388844;22;20020;-88
2024/01/11 22:50:07;;;;;;;28.20;12.68;;;;;;;;;;10388817;22;20095;-83
2024/01/11 22:54:11;;;;;;;34.78;13.75;;;;;;;;;;10390072;22;20133;-90
2024/01/11 22:58:14;;;;;;;16.38;6.07;;;;;;;;;;10388025;22;20031;-89
2024/01/11 23:02:18;;;;;;;33.15;11.60;;;;;;;;;;10388251;22;20050;-88
2024/01/11 23:06:21;;;;;;;24.63;11.95;;;;;;;;;;10388371;22;20062;-84
2024/01/11 23:10:26;;;;;;;25.20;11.48;;;;;;;;;;10362745;22;20341;-82
2024/01/11 23:14:29;;;;;;;22.77;7.78;;;;;;;;;;10362913;22;20027;-85
2024/01/11 23:18:33;;;;;;;19.98;8.27;;;;;;;;;;10362369;22;20024;-90
2024/01/11 23:22:36;;;;;;;18.05;9.23;;;;;;;;;;10362423;22;20099;-87
2024/01/11 23:26:43;;;;;;;12.63;6.60;;;;;;;;;;10362495;22;20023;-82
2024/01/11 23:30:47;;;;;;;15.95;7.72;;;;;;;;;;10362399;22;20395;-83
2024/01/11 23:34:50;;;;;;;17.33;6.15;;;;;;;;;;10362541;22;20103;-83
2024/01/11 23:38:53;;;;;;;13.57;6.47;;;;;;;;;;10362604;22;20458;-82
2024/01/11 23:43:00;;;;;;;11.13;3.85;;;;;;;;;;10362518;22;20049;-91
2024/01/11 23:47:04;;;;;;;8.05;4.15;;;;;;;;;;10361394;22;20024;-85
2024/01/11 23:51:07;;;;;;;11.18;5.35;;;;;;;;;;10361946;22;20027;-85
2024/01/11 23:55:13;;;;;;;15.52;5.55;;;;;;;;;;10388548;22;20022;-85
2024/01/11 23:59:20;;;;;;;11.65;5.38;;;;;;;;;;10361999;22;20027;-83
